createdAt,value
2019-03-20T00:03:15.202Z,88.60
2019-03-20T00:08:19.960Z,89.90
2019-03-20T00:13:24.689Z,90.00
2019-03-20T00:18:29.427Z,89.80
2019-03-20T00:23:33.950Z,89.40
2019-03-20T00:28:38.478Z,89.80
2019-03-20T00:33:43.040Z,90.00
2019-03-20T00:38:47.784Z,90.00
2019-03-20T00:43:52.526Z,90.10
2019-03-20T00:48:57.034Z,90.00
2019-03-20T00:54:01.575Z,89.80
2019-03-20T00:59:06.414Z,89.70
2019-03-20T01:04:10.877Z,89.00
2019-03-20T01:09:15.617Z,90.00
2019-03-20T01:14:20.129Z,90.00
2019-03-20T01:19:25.998Z,89.40
2019-03-20T01:24:30.765Z,88.50
2019-03-20T01:29:35.506Z,88.50
2019-03-20T01:34:39.941Z,87.70
2019-03-20T01:39:44.682Z,86.90
2019-03-20T01:44:50.635Z,86.60
2019-03-20T01:49:55.395Z,86.90
2019-03-20T01:55:00.138Z,85.70
2019-03-20T02:00:07.644Z,86.30
2019-03-20T02:05:12.386Z,86.90
2019-03-20T02:10:17.909Z,86.90
2019-03-20T02:15:22.485Z,86.50
2019-03-20T02:20:27.230Z,86.90
2019-03-20T02:25:32.509Z,86.30
2019-03-20T02:30:37.298Z,84.80
2019-03-20T02:35:51.374Z,85.80
2019-03-20T02:40:47.779Z,85.60
2019-03-20T02:45:52.473Z,85.40
2019-03-20T02:50:56.829Z,85.00
2019-03-20T02:56:01.629Z,85.00
2019-03-20T03:01:05.971Z,84.90
2019-03-20T03:06:10.532Z,85.00
2019-03-20T03:11:15.044Z,84.90
2019-03-20T03:16:19.687Z,85.10
2019-03-20T03:21:24.128Z,84.90
2019-03-20T03:26:28.642Z,85.10
2019-03-20T03:31:33.308Z,85.00
2019-03-20T03:36:37.743Z,85.10
2019-03-20T03:41:42.103Z,85.20
2019-03-20T03:46:46.583Z,85.00
2019-03-20T03:51:51.032Z,84.90
2019-03-20T03:56:55.786Z,85.20
2019-03-20T04:02:00.308Z,85.10
2019-03-20T04:07:04.967Z,85.10
2019-03-20T04:12:09.292Z,84.90
2019-03-20T04:17:19.652Z,85.40
2019-03-20T04:22:24.409Z,85.70
2019-03-20T04:27:28.929Z,86.20
2019-03-20T04:32:33.586Z,85.60
2019-03-20T04:37:38.328Z,85.10
2019-03-20T04:42:43.070Z,84.30
2019-03-20T04:47:47.504Z,85.10
2019-03-20T04:52:52.246Z,85.50
2019-03-20T04:57:56.988Z,85.50
2019-03-20T05:03:01.734Z,86.00
2019-03-20T05:08:06.165Z,87.00
2019-03-20T05:13:11.213Z,86.90
2019-03-20T05:18:15.955Z,86.40
2019-03-20T05:23:20.697Z,86.30
2019-03-20T05:28:25.439Z,85.90
2019-03-20T05:33:30.182Z,85.80
2019-03-20T05:38:34.924Z,85.80
2019-03-20T05:43:39.460Z,85.70
2019-03-20T05:48:43.872Z,85.70
2019-03-20T05:53:48.306Z,85.50
2019-03-20T05:58:52.738Z,85.20
2019-03-20T06:03:57.405Z,83.60
2019-03-20T06:09:01.837Z,82.00
2019-03-20T06:14:06.595Z,81.50
2019-03-20T06:19:11.089Z,80.50
2019-03-20T06:24:15.526Z,79.80
2019-03-20T06:29:20.308Z,78.80
2019-03-20T06:34:24.948Z,78.40
2019-03-20T06:39:29.451Z,78.90
2019-03-20T06:44:34.108Z,79.40
2019-03-20T06:49:38.535Z,78.60
2019-03-20T06:54:43.285Z,79.30
2019-03-20T07:00:15.061Z,79.10
2019-03-20T07:05:31.786Z,78.30
2019-03-20T07:10:45.743Z,79.50
2019-03-20T07:15:50.178Z,78.90
2019-03-20T07:20:55.843Z,78.90
2019-03-20T07:26:00.580Z,77.80
2019-03-20T07:31:14.709Z,77.60
2019-03-20T07:36:11.172Z,76.50
2019-03-20T07:41:16.054Z,76.60
2019-03-20T07:46:20.787Z,75.80
2019-03-20T07:51:25.212Z,75.50
2019-03-20T07:56:29.956Z,75.00
2019-03-20T08:01:34.677Z,74.30
2019-03-20T08:06:40.357Z,74.30
2019-03-20T08:11:45.100Z,75.00
2019-03-20T08:16:49.535Z,71.60
2019-03-20T08:21:53.942Z,70.50
2019-03-20T08:26:59.029Z,69.30
2019-03-20T08:32:03.638Z,68.10
2019-03-20T08:37:08.502Z,68.10
2019-03-20T08:42:12.936Z,67.30
2019-03-20T08:47:17.445Z,66.30
2019-03-20T08:52:22.113Z,64.30
2019-03-20T08:57:26.854Z,64.40
2019-03-20T09:02:31.904Z,62.80
2019-03-20T09:07:46.660Z,62.40
2019-03-20T09:12:42.616Z,60.90
2019-03-20T09:17:47.050Z,59.80
2019-03-20T09:22:51.464Z,63.30
2019-03-20T09:27:55.899Z,61.60
2019-03-20T09:33:00.354Z,57.70
2019-03-20T09:38:04.764Z,58.20
2019-03-20T09:43:09.530Z,56.30
2019-03-20T09:48:13.967Z,56.20
2019-03-20T09:53:18.713Z,58.20
2019-03-20T09:58:23.448Z,56.60
2019-03-20T10:03:27.859Z,55.00
2019-03-20T10:08:32.626Z,57.70
2019-03-20T10:13:37.138Z,56.90
2019-03-20T10:18:41.801Z,57.20
2019-03-20T10:23:46.236Z,56.00
2019-03-20T10:28:50.978Z,54.00
2019-03-20T10:33:55.721Z,53.30
2019-03-20T10:39:06.586Z,51.30
2019-03-20T10:44:06.740Z,52.40
2019-03-20T10:49:11.147Z,54.00
2019-03-20T10:54:16.577Z,51.10
2019-03-20T10:59:21.275Z,53.60
2019-03-20T11:04:25.707Z,49.90
2019-03-20T11:09:30.448Z,50.70
2019-03-20T11:14:34.882Z,49.90
2019-03-20T11:19:39.398Z,50.00
2019-03-20T11:24:44.077Z,50.90
2019-03-20T11:29:48.466Z,51.80
2019-03-20T11:34:53.212Z,51.10
2019-03-20T11:39:57.646Z,49.70
2019-03-20T11:45:02.181Z,50.40
2019-03-20T11:50:09.918Z,49.80
2019-03-20T11:55:14.661Z,47.90
2019-03-20T12:00:21.552Z,50.30
2019-03-20T12:05:26.068Z,51.30
2019-03-20T12:10:31.958Z,50.80
2019-03-20T12:15:36.392Z,48.70
2019-03-20T12:20:41.135Z,48.70
2019-03-20T12:25:45.877Z,50.20
2019-03-20T12:30:50.311Z,48.10
2019-03-20T12:35:55.057Z,47.60
2019-03-20T12:40:59.796Z,49.30
2019-03-20T12:46:04.202Z,48.40
2019-03-20T12:51:08.974Z,46.90
2019-03-20T12:56:13.481Z,47.70
2019-03-20T13:01:18.147Z,48.50
2019-03-20T13:06:22.891Z,47.90
2019-03-20T13:11:27.939Z,49.20
2019-03-20T13:16:32.679Z,50.00
2019-03-20T13:21:37.221Z,49.70
2019-03-20T13:26:41.636Z,48.50
2019-03-20T13:31:46.599Z,46.00
2019-03-20T13:36:51.043Z,46.70
2019-03-20T13:41:55.469Z,45.60
2019-03-20T13:46:59.906Z,46.30
2019-03-20T13:52:04.647Z,44.40
2019-03-20T13:57:09.670Z,44.80
2019-03-20T14:02:14.211Z,46.50
2019-03-20T14:07:20.076Z,47.40
2019-03-20T14:12:24.616Z,45.30
2019-03-20T14:17:29.336Z,45.50
2019-03-20T14:22:33.900Z,45.50
2019-03-20T14:27:38.426Z,47.00
2019-03-20T14:32:43.165Z,45.20
2019-03-20T14:37:47.702Z,44.10
2019-03-20T14:42:52.384Z,47.10
2019-03-20T14:47:57.113Z,44.00
2019-03-20T14:53:01.546Z,43.80
2019-03-20T14:58:05.979Z,45.90
2019-03-20T15:03:10.416Z,44.30
2019-03-20T15:08:15.130Z,42.40
2019-03-20T15:13:19.561Z,40.40
2019-03-20T15:18:24.332Z,44.60
2019-03-20T15:23:28.849Z,44.50
2019-03-20T15:28:33.518Z,42.00
2019-03-20T15:33:38.256Z,45.00
2019-03-20T15:38:42.685Z,43.30
2019-03-20T15:43:47.429Z,44.80
2019-03-20T15:48:52.246Z,46.20
2019-03-20T15:53:56.918Z,47.00
2019-03-20T15:59:01.672Z,49.20
2019-03-20T16:04:06.681Z,49.90
2019-03-20T16:09:11.443Z,50.20
2019-03-20T16:14:16.268Z,51.20
2019-03-20T16:19:20.927Z,51.60
2019-03-20T16:24:26.898Z,52.70
2019-03-20T16:29:31.411Z,53.30
2019-03-20T16:34:35.842Z,53.60
2019-03-20T16:39:42.658Z,53.60
2019-03-20T16:44:47.170Z,54.00
2019-03-20T16:49:52.431Z,54.60
2019-03-20T16:54:56.990Z,55.00
2019-03-20T17:00:05.500Z,54.80
2019-03-20T17:05:10.668Z,55.50
2019-03-20T17:10:21.210Z,55.60
2019-03-20T17:15:28.446Z,55.50
2019-03-20T17:20:33.213Z,55.10
2019-03-20T17:25:37.697Z,54.30
2019-03-20T17:30:47.570Z,55.10
2019-03-20T17:35:52.336Z,54.90
2019-03-20T17:40:56.763Z,55.30
2019-03-20T17:46:01.504Z,55.10
2019-03-20T17:51:08.093Z,54.80
2019-03-20T17:56:12.833Z,55.20
2019-03-20T18:01:17.551Z,54.30
2019-03-20T18:06:21.982Z,55.10
2019-03-20T18:11:26.486Z,55.10
2019-03-20T18:16:31.184Z,55.10
2019-03-20T18:21:35.599Z,55.00
2019-03-20T18:26:40.359Z,55.90
2019-03-20T18:31:46.427Z,56.00
2019-03-20T18:36:51.048Z,56.50
2019-03-20T18:41:57.909Z,56.50
2019-03-20T18:47:02.092Z,57.20
2019-03-20T18:52:07.168Z,57.60
2019-03-20T18:57:11.883Z,57.00
2019-03-20T19:02:16.628Z,57.30
2019-03-20T19:07:21.347Z,57.30
2019-03-20T19:12:25.879Z,57.80
2019-03-20T19:17:30.543Z,58.10
2019-03-20T19:22:34.992Z,58.60
2019-03-20T19:27:39.734Z,59.30
2019-03-20T19:32:44.462Z,60.20
2019-03-20T19:37:48.895Z,60.60
2019-03-20T19:42:53.637Z,61.50
2019-03-20T19:47:58.077Z,61.70
2019-03-20T19:53:03.120Z,61.70
2019-03-20T19:58:07.557Z,61.80
2019-03-20T20:03:12.297Z,61.80
2019-03-20T20:08:17.018Z,60.90
2019-03-20T20:13:21.758Z,60.90
2019-03-20T20:18:26.526Z,61.40
2019-03-20T20:23:31.268Z,61.80
2019-03-20T20:28:35.698Z,62.60
2019-03-20T20:33:40.440Z,63.10
2019-03-20T20:38:45.168Z,63.90
2019-03-20T20:43:49.935Z,63.70
2019-03-20T20:48:54.358Z,63.80
2019-03-20T20:53:58.770Z,63.70
2019-03-20T20:59:03.540Z,64.50
2019-03-20T21:04:08.277Z,64.10
2019-03-20T21:09:13.025Z,64.90
2019-03-20T21:14:17.760Z,65.00
2019-03-20T21:19:32.034Z,65.20
2019-03-20T21:24:36.742Z,66.00
2019-03-20T21:29:59.639Z,65.40
2019-03-20T21:35:30.081Z,66.00
2019-03-20T21:40:46.904Z,66.20
2019-03-20T21:46:18.678Z,66.80
2019-03-20T21:51:23.497Z,67.00
2019-03-20T21:56:47.704Z,67.50
2019-03-20T22:02:14.454Z,67.80
2019-03-20T22:07:19.099Z,67.10
2019-03-20T22:12:41.983Z,67.70
2019-03-20T22:18:07.623Z,68.30
2019-03-20T22:23:23.781Z,67.50
2019-03-20T22:28:50.891Z,68.40
2019-03-20T22:34:24.203Z,68.50
2019-03-20T22:39:51.369Z,69.40
2019-03-20T22:45:07.785Z,70.20
2019-03-20T22:50:15.602Z,70.10
2019-03-20T22:55:45.921Z,70.70
2019-03-20T23:00:53.885Z,70.90
2019-03-20T23:05:59.906Z,71.10
2019-03-20T23:11:04.669Z,71.00
2019-03-20T23:16:12.485Z,71.00
2019-03-20T23:21:16.922Z,71.30
2019-03-20T23:26:21.355Z,71.10
2019-03-20T23:31:26.096Z,71.50
2019-03-20T23:36:30.720Z,71.70
2019-03-20T23:41:35.247Z,72.80
2019-03-20T23:46:40.015Z,72.90
2019-03-20T23:51:44.526Z,74.00
2019-03-20T23:56:50.805Z,74.10
